Ksar Chellala, Algérie

17:44 CET le 21 octobre 2014 (GMT +0100)
A. Boussouf Ain Bouchekif | Change Station
CLOSE
Current Station
Aéroport
Location: Tiaret,
Altitude: 989 m
Stations météo à proximité

Alt. 989 m 35.34 °N, 1.46 °E | Updated 1 hour ago

Clear
Ciel dégagé
27 ° C
Paraît 27 ° C
N
17
Vent Variable Vent de NO

Aujourd'hui
Haut(e) -- | Bas -- ° C
--% Risque de précip.
Hier
Haut(e) -- | Bas -- ° C
Precip. -- mm
7:01 AM 6:08 PM
Lune descendante, 5% visible
Pression 1024 hPa
Visibilité -9999.0 Kilomètres
Nuages
Point de rosée 11 ° C
Humidité 37%
Précipitations 0.0 mm
Profondeur de la couche neigeuse Non disponible.
UV Non disponible.
Pollen Non disponible.
Qualité de l'air Non disponible.
Flu Activity Non disponible.
METAR DAOB 211500Z 31009KT CAVOK 27/11 Q1024

More Conditions Fewer Conditions

Pression 1024 hPa
Visibilité -9999.0 Kilomètres
Nuages
Point de rosée 11 ° C
Humidité 37%
Précipitations 0.0 mm
Profondeur de la couche neigeuse Non disponible.
UV Non disponible.
Pollen Non disponible.
Qualité de l'air Non disponible.
Flu Activity Non disponible.
METAR DAOB 211500Z 31009KT CAVOK 27/11 Q1024

More Conditions Fewer Conditions

10-Day Weather Forecast

Almanac

Astronomie

Oct. 21, 2014 Lever Coucher
Temps réel 07:01 CET 18:08 CET
Crépuscule civil 06:35 CET 18:34 CET
Crépuscule nautique 06:06 CET 19:03 CET
Crépuscule astronomique 05:36 CET 19:33 CET
Lune 04:37 CET 16:50 CET
Durée de lumière visible 11h 58m
Longueur du jour
11h 06m
Tomorrow will be 2m 4s shorter.
Lune descendante, 5% of the Moon is Illuminated
Aujourd'hui
Lune descendante
Oct 23
Nouveau
Oct 30
Premier quartier
Nov 6
Pleine lune
Nov 14
Dernier quartier

Extrêmes aujourd'hui

Country Highs Country Lows

Community

WunderPhotos

Upload Photos

1,763,712 Photos téléchargées !

Nearby

Qualité de l'air

Not available.

Épaisseur de neige

Not available.

Activité sismique

Ville Distance Mag. Time & Date
No recent earthquake activity has been reported nearby.
Minimum magnitude displayed is 2.5.

Températures des eaux côtières

Lieu Température
Aucun rapport de station

Stations météo à proximité